To NAV CANADA Home Page Login to a new session Search on AWWS site Feedback and Comments Disclaimer Vers la page française équivalente Tips FAQ What's new on the site To the Forecasts and Observations / NOTAM section To "File a Flight Plan" website Publications and other links Update of the User's profile FIC Telephone Numbers My Weather Data Folder Route Weather Data Regional Weather Data Local Weather Data To the Forecasts and Observations / NOTAM section
Request Generated 09/25/2016 at 12:14:31 UTC . Weather information available at that time is displayed.

METAR/TAF

FORT ST. JOHN/BC    

METAR CYXJ 251200Z 16006KT 15SM OVC130 06/02 A3010 RMK AC8 SLP213=
METAR CYXJ 251100Z 19006KT 15SM BKN130 OVC180 07/02 A3011 RMK AC5AC3
SLP213=
METAR CYXJ 251000Z 16006KT 15SM FEW120 BKN180 07/01 A3012 RMK AC1AC6
SLP218=

TAF CYXJ 250638Z 2507/2519 22008KT P6SM FEW120 SCT230
FM251300 22010KT P6SM FEW050 BKN120
BECMG 2516/2518 22015G25KT
RMK NXT FCST BY 251300Z=
Your time UTC time
Weather data provided by Environment Canada and NAV CANADA